sensor_id;sensor_type;location;lat;lon;timestamp;P1;durP1;ratioP1;P2;durP2;ratioP2
50803;SDS011;37205;51.434;6.756;2023-12-22T00:02:17;9.95;;;2.35;;
50803;SDS011;37205;51.434;6.756;2023-12-22T00:04:43;8.98;;;2.08;;
50803;SDS011;37205;51.434;6.756;2023-12-22T00:07:09;9.00;;;2.05;;
50803;SDS011;37205;51.434;6.756;2023-12-22T00:09:34;10.40;;;2.25;;
50803;SDS011;37205;51.434;6.756;2023-12-22T00:12:00;9.00;;;2.20;;
50803;SDS011;37205;51.434;6.756;2023-12-22T00:14:25;10.85;;;2.33;;
50803;SDS011;37205;51.434;6.756;2023-12-22T00:16:51;11.75;;;2.15;;
50803;SDS011;37205;51.434;6.756;2023-12-22T00:19:16;9.57;;;2.03;;
50803;SDS011;37205;51.434;6.756;2023-12-22T00:21:41;10.65;;;2.40;;
50803;SDS011;37205;51.434;6.756;2023-12-22T00:24:07;9.00;;;2.25;;
50803;SDS011;37205;51.434;6.756;2023-12-22T00:26:32;7.65;;;1.90;;
50803;SDS011;37205;51.434;6.756;2023-12-22T00:28:58;7.53;;;2.08;;
50803;SDS011;37205;51.434;6.756;2023-12-22T00:31:23;9.73;;;2.55;;
50803;SDS011;37205;51.434;6.756;2023-12-22T00:33:49;9.57;;;2.03;;
50803;SDS011;37205;51.434;6.756;2023-12-22T00:36:15;10.52;;;2.70;;
50803;SDS011;37205;51.434;6.756;2023-12-22T00:38:42;12.60;;;2.97;;
50803;SDS011;37205;51.434;6.756;2023-12-22T00:41:08;12.95;;;2.80;;
50803;SDS011;37205;51.434;6.756;2023-12-22T00:43:35;10.93;;;2.97;;
50803;SDS011;37205;51.434;6.756;2023-12-22T00:46:01;11.23;;;2.55;;
50803;SDS011;37205;51.434;6.756;2023-12-22T00:48:27;14.52;;;3.28;;
50803;SDS011;37205;51.434;6.756;2023-12-22T00:50:53;12.60;;;2.58;;
50803;SDS011;37205;51.434;6.756;2023-12-22T00:53:18;11.93;;;2.80;;
50803;SDS011;37205;51.434;6.756;2023-12-22T00:55:44;10.52;;;2.78;;
50803;SDS011;37205;51.434;6.756;2023-12-22T00:58:10;13.15;;;2.50;;
50803;SDS011;37205;51.434;6.756;2023-12-22T01:00:36;13.02;;;2.20;;
50803;SDS011;37205;51.434;6.756;2023-12-22T01:03:01;12.95;;;2.25;;
50803;SDS011;37205;51.434;6.756;2023-12-22T01:05:27;12.00;;;2.25;;
50803;SDS011;37205;51.434;6.756;2023-12-22T01:07:53;9.60;;;1.88;;
50803;SDS011;37205;51.434;6.756;2023-12-22T01:10:18;13.27;;;3.10;;
50803;SDS011;37205;51.434;6.756;2023-12-22T01:12:44;9.32;;;1.92;;
50803;SDS011;37205;51.434;6.756;2023-12-22T01:15:09;12.70;;;2.30;;
50803;SDS011;37205;51.434;6.756;2023-12-22T01:17:35;8.77;;;2.60;;
50803;SDS011;37205;51.434;6.756;2023-12-22T01:20:01;13.48;;;2.05;;
50803;SDS011;37205;51.434;6.756;2023-12-22T01:22:27;14.80;;;2.03;;
50803;SDS011;37205;51.434;6.756;2023-12-22T01:24:52;9.85;;;1.90;;
50803;SDS011;37205;51.434;6.756;2023-12-22T01:27:18;8.57;;;1.73;;
50803;SDS011;37205;51.434;6.756;2023-12-22T01:29:44;9.13;;;1.73;;
50803;SDS011;37205;51.434;6.756;2023-12-22T01:32:10;8.50;;;1.98;;
50803;SDS011;37205;51.434;6.756;2023-12-22T01:34:35;10.30;;;1.95;;
50803;SDS011;37205;51.434;6.756;2023-12-22T01:37:01;8.73;;;2.58;;
50803;SDS011;37205;51.434;6.756;2023-12-22T01:39:26;9.27;;;1.55;;
50803;SDS011;37205;51.434;6.756;2023-12-22T01:41:52;10.52;;;1.60;;
50803;SDS011;37205;51.434;6.756;2023-12-22T01:44:17;15.73;;;2.03;;
50803;SDS011;37205;51.434;6.756;2023-12-22T01:46:43;10.25;;;2.33;;
50803;SDS011;37205;51.434;6.756;2023-12-22T01:49:08;8.25;;;1.73;;
50803;SDS011;37205;51.434;6.756;2023-12-22T01:51:35;4.85;;;1.00;;
50803;SDS011;37205;51.434;6.756;2023-12-22T01:54:05;6.22;;;1.20;;
50803;SDS011;37205;51.434;6.756;2023-12-22T01:56:31;5.13;;;1.08;;
50803;SDS011;37205;51.434;6.756;2023-12-22T01:58:58;6.03;;;1.00;;
50803;SDS011;37205;51.434;6.756;2023-12-22T02:01:26;6.40;;;1.20;;
50803;SDS011;37205;51.434;6.756;2023-12-22T02:03:53;8.32;;;1.45;;
50803;SDS011;37205;51.434;6.756;2023-12-22T02:06:20;6.22;;;1.30;;
50803;SDS011;37205;51.434;6.756;2023-12-22T02:08:48;7.18;;;1.50;;
50803;SDS011;37205;51.434;6.756;2023-12-22T02:11:14;6.93;;;1.10;;
50803;SDS011;37205;51.434;6.756;2023-12-22T02:13:41;5.88;;;0.95;;
50803;SDS011;37205;51.434;6.756;2023-12-22T02:16:11;6.65;;;1.00;;
50803;SDS011;37205;51.434;6.756;2023-12-22T02:18:45;6.70;;;1.23;;
50803;SDS011;37205;51.434;6.756;2023-12-22T02:21:14;8.93;;;1.48;;
50803;SDS011;37205;51.434;6.756;2023-12-22T02:23:40;9.13;;;1.70;;
50803;SDS011;37205;51.434;6.756;2023-12-22T02:29:12;8.63;;;2.90;;
50803;SDS011;37205;51.434;6.756;2023-12-22T02:31:42;10.05;;;1.30;;
50803;SDS011;37205;51.434;6.756;2023-12-22T02:34:13;6.75;;;1.58;;
50803;SDS011;37205;51.434;6.756;2023-12-22T02:36:43;8.25;;;1.85;;
50803;SDS011;37205;51.434;6.756;2023-12-22T02:39:09;10.05;;;1.73;;
50803;SDS011;37205;51.434;6.756;2023-12-22T02:41:36;9.50;;;1.80;;
50803;SDS011;37205;51.434;6.756;2023-12-22T02:44:02;9.73;;;2.22;;
50803;SDS011;37205;51.434;6.756;2023-12-22T02:46:28;9.98;;;2.28;;
50803;SDS011;37205;51.434;6.756;2023-12-22T02:48:53;11.90;;;2.50;;
50803;SDS011;37205;51.434;6.756;2023-12-22T02:51:19;11.25;;;2.25;;
50803;SDS011;37205;51.434;6.756;2023-12-22T02:53:44;9.60;;;1.90;;
50803;SDS011;37205;51.434;6.756;2023-12-22T02:56:10;11.70;;;1.90;;
50803;SDS011;37205;51.434;6.756;2023-12-22T02:58:35;11.27;;;1.85;;
50803;SDS011;37205;51.434;6.756;2023-12-22T03:01:01;10.63;;;2.38;;
50803;SDS011;37205;51.434;6.756;2023-12-22T03:03:26;6.60;;;1.60;;
50803;SDS011;37205;51.434;6.756;2023-12-22T03:05:52;11.05;;;2.03;;
50803;SDS011;37205;51.434;6.756;2023-12-22T03:08:18;10.00;;;2.08;;
50803;SDS011;37205;51.434;6.756;2023-12-22T03:10:43;10.25;;;2.17;;
50803;SDS011;37205;51.434;6.756;2023-12-22T03:13:09;12.80;;;2.53;;
50803;SDS011;37205;51.434;6.756;2023-12-22T03:15:34;10.07;;;2.15;;
50803;SDS011;37205;51.434;6.756;2023-12-22T03:17:59;14.68;;;2.40;;
50803;SDS011;37205;51.434;6.756;2023-12-22T03:20:25;11.45;;;2.42;;
50803;SDS011;37205;51.434;6.756;2023-12-22T03:22:50;10.30;;;2.33;;
50803;SDS011;37205;51.434;6.756;2023-12-22T03:25:16;8.60;;;2.03;;
50803;SDS011;37205;51.434;6.756;2023-12-22T03:27:41;7.22;;;1.80;;
50803;SDS011;37205;51.434;6.756;2023-12-22T03:30:07;9.98;;;1.80;;
50803;SDS011;37205;51.434;6.756;2023-12-22T03:32:33;7.78;;;1.98;;
50803;SDS011;37205;51.434;6.756;2023-12-22T03:34:58;13.45;;;2.92;;
50803;SDS011;37205;51.434;6.756;2023-12-22T03:37:24;10.88;;;2.95;;
50803;SDS011;37205;51.434;6.756;2023-12-22T03:39:49;13.27;;;2.60;;
50803;SDS011;37205;51.434;6.756;2023-12-22T03:42:15;14.98;;;2.95;;
50803;SDS011;37205;51.434;6.756;2023-12-22T03:44:40;12.38;;;2.58;;
50803;SDS011;37205;51.434;6.756;2023-12-22T03:47:06;11.57;;;2.60;;
50803;SDS011;37205;51.434;6.756;2023-12-22T03:49:32;10.70;;;2.13;;
50803;SDS011;37205;51.434;6.756;2023-12-22T03:51:58;9.85;;;2.47;;
50803;SDS011;37205;51.434;6.756;2023-12-22T03:54:23;13.18;;;2.53;;
50803;SDS011;37205;51.434;6.756;2023-12-22T03:56:49;6.63;;;1.60;;
50803;SDS011;37205;51.434;6.756;2023-12-22T03:59:14;15.60;;;2.35;;
50803;SDS011;37205;51.434;6.756;2023-12-22T04:01:43;13.23;;;2.20;;
50803;SDS011;37205;51.434;6.756;2023-12-22T04:04:09;12.60;;;2.92;;
50803;SDS011;37205;51.434;6.756;2023-12-22T04:06:37;6.97;;;1.83;;
50803;SDS011;37205;51.434;6.756;2023-12-22T04:09:04;11.23;;;2.47;;
50803;SDS011;37205;51.434;6.756;2023-12-22T04:11:30;14.50;;;3.38;;
50803;SDS011;37205;51.434;6.756;2023-12-22T04:13:55;7.88;;;2.08;;
50803;SDS011;37205;51.434;6.756;2023-12-22T04:16:20;14.52;;;2.85;;
50803;SDS011;37205;51.434;6.756;2023-12-22T04:18:46;12.00;;;2.88;;
50803;SDS011;37205;51.434;6.756;2023-12-22T04:21:11;14.95;;;3.58;;
50803;SDS011;37205;51.434;6.756;2023-12-22T04:23:37;17.80;;;2.90;;
50803;SDS011;37205;51.434;6.756;2023-12-22T04:26:02;20.05;;;3.60;;
50803;SDS011;37205;51.434;6.756;2023-12-22T04:28:28;12.38;;;3.83;;
50803;SDS011;37205;51.434;6.756;2023-12-22T04:30:54;15.23;;;3.92;;
50803;SDS011;37205;51.434;6.756;2023-12-22T04:33:19;14.82;;;3.08;;
50803;SDS011;37205;51.434;6.756;2023-12-22T04:35:45;15.35;;;3.92;;
50803;SDS011;37205;51.434;6.756;2023-12-22T04:38:10;16.25;;;3.15;;
50803;SDS011;37205;51.434;6.756;2023-12-22T04:40:35;15.15;;;3.33;;
50803;SDS011;37205;51.434;6.756;2023-12-22T04:43:01;11.40;;;2.65;;
50803;SDS011;37205;51.434;6.756;2023-12-22T04:45:26;13.45;;;3.13;;
50803;SDS011;37205;51.434;6.756;2023-12-22T04:47:52;12.23;;;3.17;;
50803;SDS011;37205;51.434;6.756;2023-12-22T04:50:18;18.52;;;4.22;;
50803;SDS011;37205;51.434;6.756;2023-12-22T04:52:43;15.52;;;3.05;;
50803;SDS011;37205;51.434;6.756;2023-12-22T04:55:09;12.27;;;2.90;;
50803;SDS011;37205;51.434;6.756;2023-12-22T04:57:34;14.32;;;3.13;;
50803;SDS011;37205;51.434;6.756;2023-12-22T05:00:00;11.80;;;2.80;;
50803;SDS011;37205;51.434;6.756;2023-12-22T05:02:25;12.52;;;2.90;;
50803;SDS011;37205;51.434;6.756;2023-12-22T05:04:51;17.60;;;3.30;;
50803;SDS011;37205;51.434;6.756;2023-12-22T05:07:16;15.77;;;3.00;;
50803;SDS011;37205;51.434;6.756;2023-12-22T05:09:42;12.00;;;3.55;;
50803;SDS011;37205;51.434;6.756;2023-12-22T05:12:07;7.20;;;2.05;;
50803;SDS011;37205;51.434;6.756;2023-12-22T05:14:33;6.93;;;1.40;;
50803;SDS011;37205;51.434;6.756;2023-12-22T05:16:58;8.55;;;2.20;;
50803;SDS011;37205;51.434;6.756;2023-12-22T05:19:24;6.70;;;1.75;;
50803;SDS011;37205;51.434;6.756;2023-12-22T05:21:50;7.80;;;1.60;;
50803;SDS011;37205;51.434;6.756;2023-12-22T05:24:17;8.90;;;1.63;;
50803;SDS011;37205;51.434;6.756;2023-12-22T05:26:43;6.53;;;1.58;;
50803;SDS011;37205;51.434;6.756;2023-12-22T05:29:08;7.47;;;1.88;;
50803;SDS011;37205;51.434;6.756;2023-12-22T05:31:34;6.55;;;1.50;;
50803;SDS011;37205;51.434;6.756;2023-12-22T05:33:59;11.25;;;2.03;;
50803;SDS011;37205;51.434;6.756;2023-12-22T05:36:25;7.47;;;1.50;;
50803;SDS011;37205;51.434;6.756;2023-12-22T05:38:51;8.48;;;1.65;;
50803;SDS011;37205;51.434;6.756;2023-12-22T05:41:16;9.05;;;1.80;;
50803;SDS011;37205;51.434;6.756;2023-12-22T05:43:42;11.10;;;2.08;;
50803;SDS011;37205;51.434;6.756;2023-12-22T05:46:07;9.65;;;1.70;;
50803;SDS011;37205;51.434;6.756;2023-12-22T05:48:34;8.65;;;2.10;;
50803;SDS011;37205;51.434;6.756;2023-12-22T05:51:00;8.35;;;1.63;;
50803;SDS011;37205;51.434;6.756;2023-12-22T05:53:28;11.80;;;2.35;;
50803;SDS011;37205;51.434;6.756;2023-12-22T05:55:53;9.50;;;3.22;;
50803;SDS011;37205;51.434;6.756;2023-12-22T05:58:19;12.45;;;2.90;;
50803;SDS011;37205;51.434;6.756;2023-12-22T06:00:44;10.63;;;2.33;;
50803;SDS011;37205;51.434;6.756;2023-12-22T06:03:10;12.57;;;2.78;;
50803;SDS011;37205;51.434;6.756;2023-12-22T06:05:35;10.68;;;2.80;;
50803;SDS011;37205;51.434;6.756;2023-12-22T06:08:01;11.38;;;3.50;;
50803;SDS011;37205;51.434;6.756;2023-12-22T06:10:27;12.10;;;3.25;;
50803;SDS011;37205;51.434;6.756;2023-12-22T06:12:52;15.05;;;3.58;;
50803;SDS011;37205;51.434;6.756;2023-12-22T06:15:18;12.77;;;2.78;;
50803;SDS011;37205;51.434;6.756;2023-12-22T06:17:43;9.75;;;2.63;;
50803;SDS011;37205;51.434;6.756;2023-12-22T06:20:09;11.68;;;3.28;;
50803;SDS011;37205;51.434;6.756;2023-12-22T06:22:35;17.63;;;4.22;;
50803;SDS011;37205;51.434;6.756;2023-12-22T06:25:00;12.63;;;3.33;;
50803;SDS011;37205;51.434;6.756;2023-12-22T06:27:32;16.10;;;3.30;;
50803;SDS011;37205;51.434;6.756;2023-12-22T06:29:58;13.73;;;3.90;;
50803;SDS011;37205;51.434;6.756;2023-12-22T06:32:23;11.20;;;2.90;;
50803;SDS011;37205;51.434;6.756;2023-12-22T06:34:49;10.90;;;2.65;;
50803;SDS011;37205;51.434;6.756;2023-12-22T06:37:14;12.82;;;2.80;;
50803;SDS011;37205;51.434;6.756;2023-12-22T06:39:40;12.32;;;2.50;;
50803;SDS011;37205;51.434;6.756;2023-12-22T06:42:05;10.95;;;2.47;;
50803;SDS011;37205;51.434;6.756;2023-12-22T06:44:35;13.10;;;2.80;;
50803;SDS011;37205;51.434;6.756;2023-12-22T06:47:02;15.23;;;3.60;;
50803;SDS011;37205;51.434;6.756;2023-12-22T06:49:27;15.13;;;3.08;;
50803;SDS011;37205;51.434;6.756;2023-12-22T06:51:53;15.93;;;3.25;;
50803;SDS011;37205;51.434;6.756;2023-12-22T06:54:18;13.30;;;3.25;;
50803;SDS011;37205;51.434;6.756;2023-12-22T06:56:44;17.75;;;3.13;;
50803;SDS011;37205;51.434;6.756;2023-12-22T06:59:09;13.80;;;3.30;;
50803;SDS011;37205;51.434;6.756;2023-12-22T07:01:37;18.35;;;3.78;;
50803;SDS011;37205;51.434;6.756;2023-12-22T07:04:03;18.25;;;3.38;;
50803;SDS011;37205;51.434;6.756;2023-12-22T07:06:30;16.95;;;3.60;;
50803;SDS011;37205;51.434;6.756;2023-12-22T07:08:57;17.88;;;2.80;;
50803;SDS011;37205;51.434;6.756;2023-12-22T07:11:23;14.32;;;2.83;;
50803;SDS011;37205;51.434;6.756;2023-12-22T07:13:49;12.77;;;2.85;;
50803;SDS011;37205;51.434;6.756;2023-12-22T07:16:14;11.68;;;2.58;;
50803;SDS011;37205;51.434;6.756;2023-12-22T07:18:40;17.80;;;3.97;;
50803;SDS011;37205;51.434;6.756;2023-12-22T07:21:05;15.25;;;3.45;;
50803;SDS011;37205;51.434;6.756;2023-12-22T07:23:32;12.90;;;2.97;;
50803;SDS011;37205;51.434;6.756;2023-12-22T07:25:58;12.32;;;3.30;;
50803;SDS011;37205;51.434;6.756;2023-12-22T07:28:23;13.85;;;3.38;;
50803;SDS011;37205;51.434;6.756;2023-12-22T07:30:49;12.85;;;3.22;;
50803;SDS011;37205;51.434;6.756;2023-12-22T07:33:14;16.02;;;4.30;;
50803;SDS011;37205;51.434;6.756;2023-12-22T07:35:40;16.05;;;4.00;;
50803;SDS011;37205;51.434;6.756;2023-12-22T07:38:05;12.85;;;3.13;;
50803;SDS011;37205;51.434;6.756;2023-12-22T07:40:31;11.27;;;2.67;;
50803;SDS011;37205;51.434;6.756;2023-12-22T07:42:56;15.63;;;3.40;;
50803;SDS011;37205;51.434;6.756;2023-12-22T07:45:22;13.85;;;2.90;;
50803;SDS011;37205;51.434;6.756;2023-12-22T07:47:48;18.33;;;3.78;;
50803;SDS011;37205;51.434;6.756;2023-12-22T07:50:14;20.13;;;4.50;;
50803;SDS011;37205;51.434;6.756;2023-12-22T07:52:39;13.80;;;4.20;;
50803;SDS011;37205;51.434;6.756;2023-12-22T07:55:06;17.25;;;4.70;;
50803;SDS011;37205;51.434;6.756;2023-12-22T07:57:32;17.70;;;5.15;;
50803;SDS011;37205;51.434;6.756;2023-12-22T07:59:58;16.83;;;4.10;;
50803;SDS011;37205;51.434;6.756;2023-12-22T08:02:24;14.00;;;3.90;;
50803;SDS011;37205;51.434;6.756;2023-12-22T08:04:49;19.40;;;4.68;;
50803;SDS011;37205;51.434;6.756;2023-12-22T08:07:15;15.95;;;4.40;;
50803;SDS011;37205;51.434;6.756;2023-12-22T08:09:41;23.98;;;4.25;;
50803;SDS011;37205;51.434;6.756;2023-12-22T08:12:07;24.58;;;4.82;;
50803;SDS011;37205;51.434;6.756;2023-12-22T08:14:32;20.25;;;4.68;;
50803;SDS011;37205;51.434;6.756;2023-12-22T08:16:58;20.17;;;4.90;;
50803;SDS011;37205;51.434;6.756;2023-12-22T08:19:23;22.15;;;5.47;;
50803;SDS011;37205;51.434;6.756;2023-12-22T08:21:51;18.90;;;4.55;;
50803;SDS011;37205;51.434;6.756;2023-12-22T08:24:17;17.83;;;4.90;;
50803;SDS011;37205;51.434;6.756;2023-12-22T08:26:43;23.08;;;5.65;;
50803;SDS011;37205;51.434;6.756;2023-12-22T08:29:08;24.67;;;4.75;;
50803;SDS011;37205;51.434;6.756;2023-12-22T08:31:34;26.05;;;5.60;;
50803;SDS011;37205;51.434;6.756;2023-12-22T08:33:59;27.65;;;5.25;;
50803;SDS011;37205;51.434;6.756;2023-12-22T08:36:25;30.85;;;6.22;;
50803;SDS011;37205;51.434;6.756;2023-12-22T08:38:50;22.65;;;5.47;;
50803;SDS011;37205;51.434;6.756;2023-12-22T08:41:16;24.08;;;5.88;;
50803;SDS011;37205;51.434;6.756;2023-12-22T08:43:42;26.15;;;5.97;;
50803;SDS011;37205;51.434;6.756;2023-12-22T08:46:07;30.77;;;6.03;;
50803;SDS011;37205;51.434;6.756;2023-12-22T08:48:34;27.10;;;5.93;;
50803;SDS011;37205;51.434;6.756;2023-12-22T08:51:00;29.33;;;6.15;;
50803;SDS011;37205;51.434;6.756;2023-12-22T08:53:26;25.02;;;6.00;;
50803;SDS011;37205;51.434;6.756;2023-12-22T08:55:54;30.10;;;7.22;;
50803;SDS011;37205;51.434;6.756;2023-12-22T08:58:21;29.20;;;6.82;;
50803;SDS011;37205;51.434;6.756;2023-12-22T09:00:47;27.50;;;6.68;;
50803;SDS011;37205;51.434;6.756;2023-12-22T09:03:12;31.50;;;6.88;;
50803;SDS011;37205;51.434;6.756;2023-12-22T09:05:38;27.77;;;6.50;;
50803;SDS011;37205;51.434;6.756;2023-12-22T09:08:04;34.33;;;6.90;;
50803;SDS011;37205;51.434;6.756;2023-12-22T09:10:30;29.40;;;5.63;;
50803;SDS011;37205;51.434;6.756;2023-12-22T09:12:57;36.22;;;7.78;;
50803;SDS011;37205;51.434;6.756;2023-12-22T09:15:23;23.52;;;5.60;;
50803;SDS011;37205;51.434;6.756;2023-12-22T09:17:48;33.53;;;6.78;;
50803;SDS011;37205;51.434;6.756;2023-12-22T09:20:16;30.38;;;5.65;;
50803;SDS011;37205;51.434;6.756;2023-12-22T09:22:42;29.80;;;7.03;;
50803;SDS011;37205;51.434;6.756;2023-12-22T09:25:07;26.70;;;6.55;;
50803;SDS011;37205;51.434;6.756;2023-12-22T09:27:33;23.58;;;5.05;;
50803;SDS011;37205;51.434;6.756;2023-12-22T09:29:59;27.98;;;6.05;;
50803;SDS011;37205;51.434;6.756;2023-12-22T09:32:25;27.48;;;5.18;;
50803;SDS011;37205;51.434;6.756;2023-12-22T09:34:51;25.58;;;5.22;;
50803;SDS011;37205;51.434;6.756;2023-12-22T09:37:17;31.55;;;6.50;;
50803;SDS011;37205;51.434;6.756;2023-12-22T09:39:43;26.98;;;5.63;;
50803;SDS011;37205;51.434;6.756;2023-12-22T09:42:08;23.90;;;6.38;;
50803;SDS011;37205;51.434;6.756;2023-12-22T09:44:34;26.80;;;5.57;;
50803;SDS011;37205;51.434;6.756;2023-12-22T09:47:04;25.77;;;4.95;;
50803;SDS011;37205;51.434;6.756;2023-12-22T09:49:30;23.10;;;6.15;;
50803;SDS011;37205;51.434;6.756;2023-12-22T09:51:58;22.38;;;5.65;;
50803;SDS011;37205;51.434;6.756;2023-12-22T09:54:26;25.50;;;5.30;;
50803;SDS011;37205;51.434;6.756;2023-12-22T09:56:52;23.55;;;5.25;;
50803;SDS011;37205;51.434;6.756;2023-12-22T09:59:19;22.77;;;4.40;;
50803;SDS011;37205;51.434;6.756;2023-12-22T10:01:46;25.33;;;5.18;;
50803;SDS011;37205;51.434;6.756;2023-12-22T10:04:13;19.95;;;4.85;;
50803;SDS011;37205;51.434;6.756;2023-12-22T10:06:39;22.98;;;4.55;;
50803;SDS011;37205;51.434;6.756;2023-12-22T10:09:06;19.83;;;4.20;;
50803;SDS011;37205;51.434;6.756;2023-12-22T10:11:33;14.50;;;3.50;;
50803;SDS011;37205;51.434;6.756;2023-12-22T10:14:01;21.40;;;4.90;;
50803;SDS011;37205;51.434;6.756;2023-12-22T10:16:27;14.43;;;3.72;;
50803;SDS011;37205;51.434;6.756;2023-12-22T10:18:54;19.52;;;3.85;;
50803;SDS011;37205;51.434;6.756;2023-12-22T10:21:20;16.55;;;4.32;;
50803;SDS011;37205;51.434;6.756;2023-12-22T10:23:45;12.93;;;3.25;;
50803;SDS011;37205;51.434;6.756;2023-12-22T10:26:11;14.07;;;3.47;;
50803;SDS011;37205;51.434;6.756;2023-12-22T10:28:40;17.80;;;3.78;;
50803;SDS011;37205;51.434;6.756;2023-12-22T10:31:12;16.67;;;3.50;;
50803;SDS011;37205;51.434;6.756;2023-12-22T10:33:37;10.70;;;3.17;;
50803;SDS011;37205;51.434;6.756;2023-12-22T10:36:03;7.85;;;3.53;;
50803;SDS011;37205;51.434;6.756;2023-12-22T10:38:34;15.32;;;3.97;;
50803;SDS011;37205;51.434;6.756;2023-12-22T10:41:00;16.20;;;4.43;;
50803;SDS011;37205;51.434;6.756;2023-12-22T10:43:27;9.95;;;2.63;;
50803;SDS011;37205;51.434;6.756;2023-12-22T10:45:52;9.77;;;2.92;;
50803;SDS011;37205;51.434;6.756;2023-12-22T10:48:18;7.95;;;2.17;;
50803;SDS011;37205;51.434;6.756;2023-12-22T10:50:44;8.35;;;2.30;;
50803;SDS011;37205;51.434;6.756;2023-12-22T10:53:12;9.82;;;2.50;;
50803;SDS011;37205;51.434;6.756;2023-12-22T10:55:37;8.85;;;2.30;;
50803;SDS011;37205;51.434;6.756;2023-12-22T10:58:03;10.38;;;2.10;;
50803;SDS011;37205;51.434;6.756;2023-12-22T11:00:29;6.85;;;2.22;;
50803;SDS011;37205;51.434;6.756;2023-12-22T11:03:06;8.77;;;2.28;;
50803;SDS011;37205;51.434;6.756;2023-12-22T11:05:35;10.68;;;3.00;;
50803;SDS011;37205;51.434;6.756;2023-12-22T11:08:02;8.70;;;2.67;;
50803;SDS011;37205;51.434;6.756;2023-12-22T11:10:30;6.97;;;2.70;;
50803;SDS011;37205;51.434;6.756;2023-12-22T11:12:57;6.18;;;2.50;;
50803;SDS011;37205;51.434;6.756;2023-12-22T11:15:22;7.53;;;3.22;;
50803;SDS011;37205;51.434;6.756;2023-12-22T11:17:49;9.82;;;3.00;;
50803;SDS011;37205;51.434;6.756;2023-12-22T11:20:16;12.20;;;3.72;;
50803;SDS011;37205;51.434;6.756;2023-12-22T11:22:43;12.40;;;4.40;;
50803;SDS011;37205;51.434;6.756;2023-12-22T11:25:09;12.48;;;4.60;;
50803;SDS011;37205;51.434;6.756;2023-12-22T11:27:36;12.35;;;4.38;;
50803;SDS011;37205;51.434;6.756;2023-12-22T11:30:02;8.45;;;3.70;;
50803;SDS011;37205;51.434;6.756;2023-12-22T11:32:33;12.88;;;3.92;;
50803;SDS011;37205;51.434;6.756;2023-12-22T11:34:59;10.63;;;2.90;;
50803;SDS011;37205;51.434;6.756;2023-12-22T11:37:25;8.38;;;3.03;;
50803;SDS011;37205;51.434;6.756;2023-12-22T11:39:50;10.48;;;3.15;;
50803;SDS011;37205;51.434;6.756;2023-12-22T11:42:19;7.18;;;2.60;;
50803;SDS011;37205;51.434;6.756;2023-12-22T11:44:48;9.50;;;2.78;;
50803;SDS011;37205;51.434;6.756;2023-12-22T11:47:14;6.57;;;2.88;;
50803;SDS011;37205;51.434;6.756;2023-12-22T11:49:40;10.00;;;2.85;;
50803;SDS011;37205;51.434;6.756;2023-12-22T11:52:15;8.10;;;2.55;;
50803;SDS011;37205;51.434;6.756;2023-12-22T11:59:52;9.15;;;2.72;;
50803;SDS011;37205;51.434;6.756;2023-12-22T12:02:19;6.40;;;2.40;;
50803;SDS011;37205;51.434;6.756;2023-12-22T12:04:48;9.27;;;2.20;;
50803;SDS011;37205;51.434;6.756;2023-12-22T12:10:06;6.95;;;2.10;;
50803;SDS011;37205;51.434;6.756;2023-12-22T12:12:33;6.47;;;2.38;;
50803;SDS011;37205;51.434;6.756;2023-12-22T12:15:01;7.63;;;2.20;;
50803;SDS011;37205;51.434;6.756;2023-12-22T12:17:32;8.65;;;2.28;;
50803;SDS011;37205;51.434;6.756;2023-12-22T12:19:58;10.60;;;2.22;;
50803;SDS011;37205;51.434;6.756;2023-12-22T12:22:24;7.13;;;2.33;;
50803;SDS011;37205;51.434;6.756;2023-12-22T12:24:51;6.75;;;2.72;;
50803;SDS011;37205;51.434;6.756;2023-12-22T12:27:17;9.32;;;2.63;;
50803;SDS011;37205;51.434;6.756;2023-12-22T12:29:46;8.55;;;2.20;;
50803;SDS011;37205;51.434;6.756;2023-12-22T12:32:13;7.47;;;2.10;;
50803;SDS011;37205;51.434;6.756;2023-12-22T12:34:42;9.10;;;2.30;;
50803;SDS011;37205;51.434;6.756;2023-12-22T12:37:07;7.20;;;2.55;;
50803;SDS011;37205;51.434;6.756;2023-12-22T12:39:34;5.18;;;1.85;;
50803;SDS011;37205;51.434;6.756;2023-12-22T12:42:01;5.90;;;1.73;;
50803;SDS011;37205;51.434;6.756;2023-12-22T12:44:29;6.47;;;2.05;;
50803;SDS011;37205;51.434;6.756;2023-12-22T12:46:57;5.97;;;2.30;;
50803;SDS011;37205;51.434;6.756;2023-12-22T12:49:23;8.07;;;2.55;;
50803;SDS011;37205;51.434;6.756;2023-12-22T12:51:52;6.22;;;2.60;;
50803;SDS011;37205;51.434;6.756;2023-12-22T12:54:18;5.20;;;1.70;;
50803;SDS011;37205;51.434;6.756;2023-12-22T12:56:45;8.55;;;3.00;;
50803;SDS011;37205;51.434;6.756;2023-12-22T12:59:12;9.02;;;3.35;;
50803;SDS011;37205;51.434;6.756;2023-12-22T13:04:08;4.82;;;1.42;;
50803;SDS011;37205;51.434;6.756;2023-12-22T13:06:34;9.07;;;2.13;;
50803;SDS011;37205;51.434;6.756;2023-12-22T13:09:00;6.30;;;2.17;;
50803;SDS011;37205;51.434;6.756;2023-12-22T13:11:27;5.18;;;1.90;;
50803;SDS011;37205;51.434;6.756;2023-12-22T13:13:54;7.25;;;2.35;;
50803;SDS011;37205;51.434;6.756;2023-12-22T13:16:20;5.50;;;2.72;;
50803;SDS011;37205;51.434;6.756;2023-12-22T13:18:56;9.82;;;4.07;;
50803;SDS011;37205;51.434;6.756;2023-12-22T13:21:23;10.25;;;3.92;;
50803;SDS011;37205;51.434;6.756;2023-12-22T13:24:08;11.75;;;4.43;;
50803;SDS011;37205;51.434;6.756;2023-12-22T13:26:36;11.82;;;4.63;;
50803;SDS011;37205;51.434;6.756;2023-12-22T13:29:03;9.65;;;4.32;;
50803;SDS011;37205;51.434;6.756;2023-12-22T13:31:30;12.15;;;4.70;;
50803;SDS011;37205;51.434;6.756;2023-12-22T13:33:56;10.82;;;3.63;;
50803;SDS011;37205;51.434;6.756;2023-12-22T13:36:22;9.95;;;3.33;;
50803;SDS011;37205;51.434;6.756;2023-12-22T13:38:48;7.05;;;3.22;;
50803;SDS011;37205;51.434;6.756;2023-12-22T13:41:14;8.13;;;4.10;;
50803;SDS011;37205;51.434;6.756;2023-12-22T13:43:40;11.45;;;5.35;;
50803;SDS011;37205;51.434;6.756;2023-12-22T13:46:06;10.25;;;5.40;;
50803;SDS011;37205;51.434;6.756;2023-12-22T13:48:33;8.60;;;5.00;;
50803;SDS011;37205;51.434;6.756;2023-12-22T13:50:59;9.52;;;4.50;;
50803;SDS011;37205;51.434;6.756;2023-12-22T13:53:26;11.02;;;4.20;;
50803;SDS011;37205;51.434;6.756;2023-12-22T13:55:55;11.15;;;3.58;;
50803;SDS011;37205;51.434;6.756;2023-12-22T13:58:21;6.50;;;3.05;;
50803;SDS011;37205;51.434;6.756;2023-12-22T14:00:46;7.28;;;3.40;;
50803;SDS011;37205;51.434;6.756;2023-12-22T14:03:12;9.27;;;3.00;;
50803;SDS011;37205;51.434;6.756;2023-12-22T14:05:41;11.50;;;3.03;;
50803;SDS011;37205;51.434;6.756;2023-12-22T14:08:07;9.80;;;2.90;;
50803;SDS011;37205;51.434;6.756;2023-12-22T14:10:33;7.85;;;3.58;;
50803;SDS011;37205;51.434;6.756;2023-12-22T14:12:58;10.30;;;2.70;;
50803;SDS011;37205;51.434;6.756;2023-12-22T14:18:46;10.23;;;2.80;;
50803;SDS011;37205;51.434;6.756;2023-12-22T14:21:12;7.18;;;1.88;;
50803;SDS011;37205;51.434;6.756;2023-12-22T14:23:37;10.15;;;3.30;;
50803;SDS011;37205;51.434;6.756;2023-12-22T14:26:03;9.00;;;3.80;;
50803;SDS011;37205;51.434;6.756;2023-12-22T14:28:30;7.82;;;3.17;;
50803;SDS011;37205;51.434;6.756;2023-12-22T14:30:55;7.10;;;3.55;;
50803;SDS011;37205;51.434;6.756;2023-12-22T14:33:21;9.20;;;2.92;;
50803;SDS011;37205;51.434;6.756;2023-12-22T14:35:46;12.13;;;3.92;;
50803;SDS011;37205;51.434;6.756;2023-12-22T14:38:12;9.60;;;3.03;;
50803;SDS011;37205;51.434;6.756;2023-12-22T14:40:38;8.95;;;2.80;;
50803;SDS011;37205;51.434;6.756;2023-12-22T14:43:03;12.05;;;3.17;;
50803;SDS011;37205;51.434;6.756;2023-12-22T14:45:29;9.82;;;3.40;;
50803;SDS011;37205;51.434;6.756;2023-12-22T14:47:55;7.10;;;2.22;;
50803;SDS011;37205;51.434;6.756;2023-12-22T14:50:20;12.73;;;3.72;;
50803;SDS011;37205;51.434;6.756;2023-12-22T14:52:46;7.90;;;3.10;;